sensor_id;sensor_type;location;lat;lon;timestamp;pressure;altitude;pressure_sealevel;temperature;humidity
42705;BME280;28342;42.594;23.414;2023-04-08T00:08:28;94545.25;;;4.73;70.71
42705;BME280;28342;42.594;23.414;2023-04-08T00:11:57;94514.88;;;4.52;70.92
42705;BME280;28342;42.594;23.414;2023-04-08T00:15:08;94531.63;;;4.71;70.68
42705;BME280;28342;42.594;23.414;2023-04-08T00:18:16;94519.59;;;4.55;70.75
42705;BME280;28342;42.594;23.414;2023-04-08T00:21:26;94547.88;;;4.73;71.09
42705;BME280;28342;42.594;23.414;2023-04-08T00:27:21;94543.69;;;4.72;72.59
42705;BME280;28342;42.594;23.414;2023-04-08T00:30:45;94552.13;;;4.69;72.03
42705;BME280;28342;42.594;23.414;2023-04-08T00:33:56;94517.56;;;4.36;72.77
42705;BME280;28342;42.594;23.414;2023-04-08T00:36:55;94547.94;;;4.58;72.60
42705;BME280;28342;42.594;23.414;2023-04-08T00:40:22;94538.19;;;4.68;71.41
42705;BME280;28342;42.594;23.414;2023-04-08T00:44:07;94527.44;;;4.65;71.04
42705;BME280;28342;42.594;23.414;2023-04-08T00:47:40;94545.00;;;4.74;71.27
42705;BME280;28342;42.594;23.414;2023-04-08T00:51:21;94531.41;;;4.62;70.96
42705;BME280;28342;42.594;23.414;2023-04-08T00:58:15;94528.75;;;4.67;71.88
42705;BME280;28342;42.594;23.414;2023-04-08T01:08:19;94525.63;;;4.55;71.85
42705;BME280;28342;42.594;23.414;2023-04-08T01:11:31;94515.41;;;4.48;71.70
42705;BME280;28342;42.594;23.414;2023-04-08T01:15:09;94526.38;;;4.66;71.65
42705;BME280;28342;42.594;23.414;2023-04-08T01:18:05;94512.47;;;4.65;71.69
42705;BME280;28342;42.594;23.414;2023-04-08T01:24:35;94552.59;;;4.81;71.96
42705;BME280;28342;42.594;23.414;2023-04-08T01:27:46;94549.41;;;4.89;71.66
42705;BME280;28342;42.594;23.414;2023-04-08T01:31:05;94563.88;;;4.87;72.41
42705;BME280;28342;42.594;23.414;2023-04-08T01:34:33;94521.69;;;4.58;72.22
42705;BME280;28342;42.594;23.414;2023-04-08T01:37:38;94568.84;;;4.88;70.37
42705;BME280;28342;42.594;23.414;2023-04-08T01:40:29;94555.22;;;4.81;70.81
42705;BME280;28342;42.594;23.414;2023-04-08T01:43:52;94542.09;;;4.81;71.02
42705;BME280;28342;42.594;23.414;2023-04-08T01:47:14;94558.38;;;4.83;70.74
42705;BME280;28342;42.594;23.414;2023-04-08T01:50:10;94550.25;;;4.74;70.98
42705;BME280;28342;42.594;23.414;2023-04-08T01:56:53;94574.94;;;4.73;72.00
42705;BME280;28342;42.594;23.414;2023-04-08T02:00:30;94571.88;;;4.51;72.46
42705;BME280;28342;42.594;23.414;2023-04-08T02:13:47;94585.81;;;4.46;73.24
42705;BME280;28342;42.594;23.414;2023-04-08T02:17:20;94586.34;;;4.38;73.96
42705;BME280;28342;42.594;23.414;2023-04-08T02:24:12;94573.50;;;4.32;73.33
42705;BME280;28342;42.594;23.414;2023-04-08T02:31:09;94567.94;;;4.48;72.73
42705;BME280;28342;42.594;23.414;2023-04-08T02:38:22;94574.22;;;4.63;72.58
42705;BME280;28342;42.594;23.414;2023-04-08T02:45:13;94574.78;;;4.49;73.77
42705;BME280;28342;42.594;23.414;2023-04-08T02:48:36;94547.50;;;4.35;73.61
42705;BME280;28342;42.594;23.414;2023-04-08T02:52:07;94567.94;;;4.54;74.26
42705;BME280;28342;42.594;23.414;2023-04-08T02:58:42;94531.50;;;4.32;72.07
42705;BME280;28342;42.594;23.414;2023-04-08T03:01:53;94542.78;;;4.32;72.75
42705;BME280;28342;42.594;23.414;2023-04-08T03:15:16;94567.94;;;4.48;72.81
42705;BME280;28342;42.594;23.414;2023-04-08T03:25:36;94577.69;;;4.38;74.80
42705;BME280;28342;42.594;23.414;2023-04-08T03:29:16;94556.94;;;4.41;73.94
42705;BME280;28342;42.594;23.414;2023-04-08T03:40:13;94550.94;;;4.31;74.16
42705;BME280;28342;42.594;23.414;2023-04-08T03:43:50;94584.75;;;4.53;74.12
42705;BME280;28342;42.594;23.414;2023-04-08T03:57:28;94579.50;;;4.42;74.03
42705;BME280;28342;42.594;23.414;2023-04-08T04:11:15;94566.34;;;4.58;73.67
42705;BME280;28342;42.594;23.414;2023-04-08T04:18:23;94549.56;;;4.48;73.87
42705;BME280;28342;42.594;23.414;2023-04-08T04:24:54;94584.16;;;4.71;73.55
42705;BME280;28342;42.594;23.414;2023-04-08T04:27:41;94567.41;;;4.62;73.72
42705;BME280;28342;42.594;23.414;2023-04-08T04:31:25;94583.72;;;4.48;74.58
42705;BME280;28342;42.594;23.414;2023-04-08T04:34:33;94579.47;;;4.63;74.40
42705;BME280;28342;42.594;23.414;2023-04-08T04:38:15;94580.50;;;4.67;74.75
42705;BME280;28342;42.594;23.414;2023-04-08T04:41:29;94569.13;;;4.87;73.77
42705;BME280;28342;42.594;23.414;2023-04-08T04:48:35;94580.09;;;5.04;73.14
42705;BME280;28342;42.594;23.414;2023-04-08T04:55:07;94587.19;;;5.03;73.28
42705;BME280;28342;42.594;23.414;2023-04-08T04:58:47;94591.66;;;5.03;74.49
42705;BME280;28342;42.594;23.414;2023-04-08T05:02:21;94592.16;;;5.10;74.37
42705;BME280;28342;42.594;23.414;2023-04-08T05:05:29;94566.22;;;4.88;73.50
42705;BME280;28342;42.594;23.414;2023-04-08T05:08:48;94584.53;;;5.14;73.40
42705;BME280;28342;42.594;23.414;2023-04-08T05:15:16;94547.75;;;5.03;73.31
42705;BME280;28342;42.594;23.414;2023-04-08T05:18:01;94542.03;;;4.96;74.38
42705;BME280;28342;42.594;23.414;2023-04-08T05:25:01;94585.75;;;5.31;73.43
42705;BME280;28342;42.594;23.414;2023-04-08T05:28:08;94570.28;;;5.25;73.41
42705;BME280;28342;42.594;23.414;2023-04-08T05:37:53;94578.13;;;5.74;71.55
42705;BME280;28342;42.594;23.414;2023-04-08T05:40:29;94555.78;;;5.66;71.02
42705;BME280;28342;42.594;23.414;2023-04-08T05:42:56;94565.22;;;5.73;70.31
42705;BME280;28342;42.594;23.414;2023-04-08T05:46:24;94563.53;;;5.92;71.76
42705;BME280;28342;42.594;23.414;2023-04-08T05:49:17;94553.84;;;5.82;70.93
42705;BME280;28342;42.594;23.414;2023-04-08T05:51:51;94554.06;;;5.91;69.10
42705;BME280;28342;42.594;23.414;2023-04-08T05:54:26;94566.47;;;6.19;70.00
42705;BME280;28342;42.594;23.414;2023-04-08T05:56:54;94590.09;;;6.29;68.74
42705;BME280;28342;42.594;23.414;2023-04-08T06:03:55;94559.84;;;6.22;67.70
42705;BME280;28342;42.594;23.414;2023-04-08T06:06:57;94582.03;;;6.45;68.06
42705;BME280;28342;42.594;23.414;2023-04-08T06:10:28;94582.94;;;6.59;67.65
42705;BME280;28342;42.594;23.414;2023-04-08T06:13:32;94556.22;;;6.42;68.04
42705;BME280;28342;42.594;23.414;2023-04-08T06:19:24;94563.03;;;6.48;67.22
42705;BME280;28342;42.594;23.414;2023-04-08T06:22:13;94558.16;;;6.60;67.72
42705;BME280;28342;42.594;23.414;2023-04-08T06:24:49;94586.34;;;6.83;68.58
42705;BME280;28342;42.594;23.414;2023-04-08T06:27:34;94552.53;;;6.67;67.90
42705;BME280;28342;42.594;23.414;2023-04-08T06:30:22;94588.09;;;6.93;66.30
42705;BME280;28342;42.594;23.414;2023-04-08T06:33:31;94585.41;;;6.98;67.25
42705;BME280;28342;42.594;23.414;2023-04-08T06:36:04;94573.78;;;6.99;66.20
42705;BME280;28342;42.594;23.414;2023-04-08T06:38:30;94576.63;;;7.03;66.90
42705;BME280;28342;42.594;23.414;2023-04-08T06:41:01;94586.72;;;7.19;66.51
42705;BME280;28342;42.594;23.414;2023-04-08T06:43:27;94571.94;;;7.00;67.02
42705;BME280;28342;42.594;23.414;2023-04-08T06:45:52;94594.66;;;7.38;67.13
42705;BME280;28342;42.594;23.414;2023-04-08T06:48:20;94603.00;;;7.45;65.15
42705;BME280;28342;42.594;23.414;2023-04-08T06:50:47;94593.44;;;7.49;65.41
42705;BME280;28342;42.594;23.414;2023-04-08T06:53:13;94600.44;;;7.59;66.93
42705;BME280;28342;42.594;23.414;2023-04-08T06:55:38;94589.31;;;7.62;64.96
42705;BME280;28342;42.594;23.414;2023-04-08T06:58:04;94581.69;;;7.61;65.51
42705;BME280;28342;42.594;23.414;2023-04-08T07:00:29;94595.75;;;7.75;64.91
42705;BME280;28342;42.594;23.414;2023-04-08T07:02:55;94587.13;;;7.69;65.60
42705;BME280;28342;42.594;23.414;2023-04-08T07:05:21;94567.91;;;7.64;65.74
42705;BME280;28342;42.594;23.414;2023-04-08T07:07:46;94577.25;;;7.75;65.86
42705;BME280;28342;42.594;23.414;2023-04-08T07:10:12;94603.50;;;8.04;65.83
42705;BME280;28342;42.594;23.414;2023-04-08T07:12:37;94597.97;;;8.19;64.80
42705;BME280;28342;42.594;23.414;2023-04-08T07:15:03;94592.28;;;8.26;64.50
42705;BME280;28342;42.594;23.414;2023-04-08T07:17:30;94588.03;;;8.30;62.89
42705;BME280;28342;42.594;23.414;2023-04-08T07:19:55;94587.44;;;8.33;62.30
42705;BME280;28342;42.594;23.414;2023-04-08T07:22:21;94599.38;;;8.30;62.46
42705;BME280;28342;42.594;23.414;2023-04-08T07:24:46;94618.88;;;8.34;61.80
42705;BME280;28342;42.594;23.414;2023-04-08T07:27:14;94592.66;;;8.38;65.16
42705;BME280;28342;42.594;23.414;2023-04-08T07:29:41;94605.13;;;8.51;62.15
42705;BME280;28342;42.594;23.414;2023-04-08T07:32:06;94606.91;;;8.69;62.21
42705;BME280;28342;42.594;23.414;2023-04-08T07:34:34;94610.47;;;8.79;60.50
42705;BME280;28342;42.594;23.414;2023-04-08T07:37:00;94611.59;;;8.73;60.85
42705;BME280;28342;42.594;23.414;2023-04-08T07:39:25;94609.06;;;8.67;61.30
42705;BME280;28342;42.594;23.414;2023-04-08T07:41:51;94603.31;;;8.93;60.43
42705;BME280;28342;42.594;23.414;2023-04-08T07:44:16;94594.19;;;8.99;61.21
42705;BME280;28342;42.594;23.414;2023-04-08T07:46:42;94611.84;;;9.04;59.66
42705;BME280;28342;42.594;23.414;2023-04-08T07:49:10;94593.81;;;9.06;60.72
42705;BME280;28342;42.594;23.414;2023-04-08T07:51:36;94610.25;;;9.30;58.71
42705;BME280;28342;42.594;23.414;2023-04-08T07:54:02;94610.44;;;9.34;59.81
42705;BME280;28342;42.594;23.414;2023-04-08T07:56:27;94633.97;;;9.49;59.26
42705;BME280;28342;42.594;23.414;2023-04-08T07:58:53;94634.47;;;9.51;57.07
42705;BME280;28342;42.594;23.414;2023-04-08T08:01:23;94628.47;;;9.59;57.01
42705;BME280;28342;42.594;23.414;2023-04-08T08:03:50;94645.84;;;9.65;58.11
42705;BME280;28342;42.594;23.414;2023-04-08T08:06:22;94642.34;;;9.78;57.48
42705;BME280;28342;42.594;23.414;2023-04-08T08:09:05;94626.28;;;9.61;56.11
42705;BME280;28342;42.594;23.414;2023-04-08T08:11:51;94621.88;;;9.70;56.91
42705;BME280;28342;42.594;23.414;2023-04-08T08:14:39;94639.69;;;10.14;56.28
42705;BME280;28342;42.594;23.414;2023-04-08T08:17:46;94635.09;;;10.42;56.96
42705;BME280;28342;42.594;23.414;2023-04-08T08:20:23;94634.47;;;10.23;54.97
42705;BME280;28342;42.594;23.414;2023-04-08T08:22:54;94624.72;;;10.32;55.17
42705;BME280;28342;42.594;23.414;2023-04-08T08:25:20;94632.56;;;10.60;54.80
42705;BME280;28342;42.594;23.414;2023-04-08T08:27:45;94637.63;;;10.47;54.11
42705;BME280;28342;42.594;23.414;2023-04-08T08:30:11;94641.38;;;10.46;53.45
42705;BME280;28342;42.594;23.414;2023-04-08T08:32:37;94618.22;;;10.38;53.74
42705;BME280;28342;42.594;23.414;2023-04-08T08:35:03;94635.31;;;10.55;52.30
42705;BME280;28342;42.594;23.414;2023-04-08T08:37:28;94637.09;;;10.68;53.95
42705;BME280;28342;42.594;23.414;2023-04-08T08:39:57;94632.16;;;10.75;54.76
42705;BME280;28342;42.594;23.414;2023-04-08T08:42:23;94647.56;;;10.95;51.45
42705;BME280;28342;42.594;23.414;2023-04-08T08:44:49;94639.66;;;11.04;52.99
42705;BME280;28342;42.594;23.414;2023-04-08T08:47:16;94628.06;;;11.00;51.25
42705;BME280;28342;42.594;23.414;2023-04-08T08:49:43;94622.59;;;10.96;50.21
42705;BME280;28342;42.594;23.414;2023-04-08T08:52:08;94639.09;;;11.24;51.27
42705;BME280;28342;42.594;23.414;2023-04-08T08:54:34;94652.25;;;11.38;52.14
42705;BME280;28342;42.594;23.414;2023-04-08T08:57:00;94653.69;;;11.44;48.80
42705;BME280;28342;42.594;23.414;2023-04-08T08:59:26;94654.34;;;11.58;50.55
42705;BME280;28342;42.594;23.414;2023-04-08T09:01:51;94659.53;;;11.72;50.20
42705;BME280;28342;42.594;23.414;2023-04-08T09:04:18;94661.00;;;11.87;51.16
42705;BME280;28342;42.594;23.414;2023-04-08T09:06:45;94659.44;;;11.86;51.10
42705;BME280;28342;42.594;23.414;2023-04-08T09:09:12;94666.31;;;11.87;51.47
42705;BME280;28342;42.594;23.414;2023-04-08T09:11:40;94644.59;;;11.85;53.66
42705;BME280;28342;42.594;23.414;2023-04-08T09:14:24;94658.81;;;12.06;52.95
42705;BME280;28342;42.594;23.414;2023-04-08T09:16:50;94633.19;;;12.10;55.13
42705;BME280;28342;42.594;23.414;2023-04-08T09:19:16;94666.81;;;12.41;52.58
42705;BME280;28342;42.594;23.414;2023-04-08T09:22:11;94657.09;;;12.53;54.04
42705;BME280;28342;42.594;23.414;2023-04-08T09:24:55;94655.34;;;12.66;54.68
42705;BME280;28342;42.594;23.414;2023-04-08T09:27:41;94649.78;;;13.06;53.12
42705;BME280;28342;42.594;23.414;2023-04-08T09:30:13;94656.09;;;13.39;51.52
42705;BME280;28342;42.594;23.414;2023-04-08T09:33:08;94652.31;;;13.49;49.00
42705;BME280;28342;42.594;23.414;2023-04-08T09:35:35;94655.66;;;13.67;50.02
42705;BME280;28342;42.594;23.414;2023-04-08T09:38:01;94632.47;;;13.29;48.37
42705;BME280;28342;42.594;23.414;2023-04-08T09:40:27;94648.91;;;13.69;52.55
42705;BME280;28342;42.594;23.414;2023-04-08T09:42:54;94630.56;;;13.38;47.49
42705;BME280;28342;42.594;23.414;2023-04-08T09:45:21;94637.59;;;13.72;49.81
42705;BME280;28342;42.594;23.414;2023-04-08T09:47:56;94638.34;;;14.02;46.93
42705;BME280;28342;42.594;23.414;2023-04-08T09:50:23;94646.25;;;14.32;46.98
42705;BME280;28342;42.594;23.414;2023-04-08T09:53:09;94633.22;;;14.72;48.58
42705;BME280;28342;42.594;23.414;2023-04-08T09:55:38;94614.69;;;15.00;46.39
42705;BME280;28342;42.594;23.414;2023-04-08T09:58:17;94631.66;;;15.16;47.40
42705;BME280;28342;42.594;23.414;2023-04-08T10:00:46;94633.66;;;15.44;44.59
42705;BME280;28342;42.594;23.414;2023-04-08T10:05:52;94617.81;;;16.00;46.03
42705;BME280;28342;42.594;23.414;2023-04-08T10:08:18;94601.25;;;14.63;49.22
42705;BME280;28342;42.594;23.414;2023-04-08T10:10:44;94603.31;;;14.79;44.87
42705;BME280;28342;42.594;23.414;2023-04-08T10:13:10;94615.31;;;14.73;45.91
42705;BME280;28342;42.594;23.414;2023-04-08T10:15:36;94629.28;;;14.57;46.63
42705;BME280;28342;42.594;23.414;2023-04-08T10:23:05;94614.72;;;13.92;49.94
42705;BME280;28342;42.594;23.414;2023-04-08T10:25:37;94615.88;;;13.83;48.81
42705;BME280;28342;42.594;23.414;2023-04-08T10:30:49;94619.72;;;13.43;49.20
42705;BME280;28342;42.594;23.414;2023-04-08T10:33:47;94616.47;;;13.38;48.33
42705;BME280;28342;42.594;23.414;2023-04-08T10:38:40;94604.94;;;13.25;51.84
42705;BME280;28342;42.594;23.414;2023-04-08T10:41:07;94591.16;;;14.15;52.31
42705;BME280;28342;42.594;23.414;2023-04-08T10:43:34;94595.84;;;14.18;52.85
42705;BME280;28342;42.594;23.414;2023-04-08T10:46:01;94604.09;;;14.04;53.88
42705;BME280;28342;42.594;23.414;2023-04-08T10:48:27;94600.06;;;13.27;49.20
42705;BME280;28342;42.594;23.414;2023-04-08T10:51:00;94586.94;;;13.13;50.52
42705;BME280;28342;42.594;23.414;2023-04-08T10:53:28;94598.03;;;13.15;49.37
42705;BME280;28342;42.594;23.414;2023-04-08T10:56:11;94602.97;;;13.05;49.63
42705;BME280;28342;42.594;23.414;2023-04-08T10:58:54;94591.59;;;13.25;50.11
42705;BME280;28342;42.594;23.414;2023-04-08T11:01:23;94598.16;;;13.57;50.34
42705;BME280;28342;42.594;23.414;2023-04-08T11:03:49;94589.94;;;13.71;46.96
42705;BME280;28342;42.594;23.414;2023-04-08T11:06:15;94592.38;;;13.55;48.13
42705;BME280;28342;42.594;23.414;2023-04-08T11:08:41;94584.63;;;13.41;50.69
42705;BME280;28342;42.594;23.414;2023-04-08T11:11:09;94591.16;;;13.53;46.73
42705;BME280;28342;42.594;23.414;2023-04-08T11:13:40;94582.84;;;13.16;45.83
42705;BME280;28342;42.594;23.414;2023-04-08T11:16:07;94573.25;;;12.85;48.31
42705;BME280;28342;42.594;23.414;2023-04-08T11:18:39;94589.53;;;12.93;46.96
42705;BME280;28342;42.594;23.414;2023-04-08T11:21:09;94583.69;;;12.61;47.02
42705;BME280;28342;42.594;23.414;2023-04-08T11:23:35;94566.97;;;12.43;45.41
42705;BME280;28342;42.594;23.414;2023-04-08T11:26:01;94575.25;;;12.59;48.42
42705;BME280;28342;42.594;23.414;2023-04-08T11:28:28;94575.03;;;12.73;50.87
42705;BME280;28342;42.594;23.414;2023-04-08T11:30:54;94588.38;;;12.64;48.74
42705;BME280;28342;42.594;23.414;2023-04-08T11:33:20;94591.84;;;12.56;47.21
42705;BME280;28342;42.594;23.414;2023-04-08T11:35:49;94590.59;;;12.45;47.91
42705;BME280;28342;42.594;23.414;2023-04-08T11:38:21;94593.19;;;12.71;49.97
42705;BME280;28342;42.594;23.414;2023-04-08T11:40:54;94586.16;;;12.66;52.39
42705;BME280;28342;42.594;23.414;2023-04-08T11:43:20;94579.13;;;12.62;54.25
42705;BME280;28342;42.594;23.414;2023-04-08T11:45:47;94580.91;;;12.96;53.47
42705;BME280;28342;42.594;23.414;2023-04-08T11:48:14;94578.22;;;12.96;51.57
42705;BME280;28342;42.594;23.414;2023-04-08T11:50:43;94562.97;;;12.75;51.70
42705;BME280;28342;42.594;23.414;2023-04-08T11:53:20;94556.31;;;12.52;53.88
42705;BME280;28342;42.594;23.414;2023-04-08T11:55:46;94559.34;;;12.80;57.33
42705;BME280;28342;42.594;23.414;2023-04-08T11:58:13;94565.81;;;13.08;51.61
42705;BME280;28342;42.594;23.414;2023-04-08T12:00:42;94566.72;;;13.12;54.52
42705;BME280;28342;42.594;23.414;2023-04-08T12:03:08;94574.75;;;13.63;52.69
42705;BME280;28342;42.594;23.414;2023-04-08T12:05:34;94545.31;;;13.38;47.91
42705;BME280;28342;42.594;23.414;2023-04-08T12:08:00;94570.59;;;12.85;47.83
42705;BME280;28342;42.594;23.414;2023-04-08T12:10:26;94568.38;;;12.96;51.44
42705;BME280;28342;42.594;23.414;2023-04-08T12:12:53;94535.72;;;12.78;48.12
42705;BME280;28342;42.594;23.414;2023-04-08T12:15:18;94556.72;;;12.71;49.43
42705;BME280;28342;42.594;23.414;2023-04-08T12:17:44;94581.97;;;12.56;49.68
42705;BME280;28342;42.594;23.414;2023-04-08T12:20:12;94579.69;;;11.86;52.21
42705;BME280;28342;42.594;23.414;2023-04-08T12:22:38;94568.09;;;11.64;55.23
42705;BME280;28342;42.594;23.414;2023-04-08T12:25:04;94575.25;;;11.38;55.28
42705;BME280;28342;42.594;23.414;2023-04-08T12:27:31;94563.56;;;10.99;55.98
42705;BME280;28342;42.594;23.414;2023-04-08T12:30:00;94572.78;;;10.93;58.00
42705;BME280;28342;42.594;23.414;2023-04-08T12:32:27;94554.75;;;10.73;60.10
42705;BME280;28342;42.594;23.414;2023-04-08T12:34:53;94531.72;;;10.99;60.26
42705;BME280;28342;42.594;23.414;2023-04-08T12:37:18;94544.78;;;11.35;60.17
42705;BME280;28342;42.594;23.414;2023-04-08T12:39:45;94525.88;;;11.37;60.32
42705;BME280;28342;42.594;23.414;2023-04-08T12:42:10;94519.66;;;11.50;57.10
42705;BME280;28342;42.594;23.414;2023-04-08T12:44:36;94505.41;;;11.63;57.62
42705;BME280;28342;42.594;23.414;2023-04-08T12:47:01;94510.56;;;11.77;57.25
42705;BME280;28342;42.594;23.414;2023-04-08T12:49:27;94520.41;;;11.77;57.04
42705;BME280;28342;42.594;23.414;2023-04-08T12:51:55;94522.47;;;11.97;57.64
42705;BME280;28342;42.594;23.414;2023-04-08T12:54:20;94516.03;;;12.15;56.03
42705;BME280;28342;42.594;23.414;2023-04-08T12:56:46;94515.22;;;12.23;56.80
42705;BME280;28342;42.594;23.414;2023-04-08T12:59:13;94503.19;;;12.09;54.24
42705;BME280;28342;42.594;23.414;2023-04-08T13:01:39;94521.63;;;12.31;51.80
42705;BME280;28342;42.594;23.414;2023-04-08T13:04:05;94521.13;;;12.38;51.05
42705;BME280;28342;42.594;23.414;2023-04-08T13:06:30;94508.22;;;12.10;56.35
42705;BME280;28342;42.594;23.414;2023-04-08T13:08:56;94513.56;;;12.57;58.00
42705;BME280;28342;42.594;23.414;2023-04-08T13:11:21;94499.84;;;12.46;57.19
42705;BME280;28342;42.594;23.414;2023-04-08T13:13:47;94476.53;;;12.43;56.02
42705;BME280;28342;42.594;23.414;2023-04-08T13:16:13;94498.06;;;12.59;54.71
42705;BME280;28342;42.594;23.414;2023-04-08T13:18:39;94501.75;;;12.75;55.22
42705;BME280;28342;42.594;23.414;2023-04-08T13:21:08;94485.13;;;12.78;55.96
42705;BME280;28342;42.594;23.414;2023-04-08T13:23:34;94501.22;;;12.91;55.33
42705;BME280;28342;42.594;23.414;2023-04-08T13:26:02;94503.97;;;13.03;54.34
42705;BME280;28342;42.594;23.414;2023-04-08T13:28:31;94504.19;;;12.89;54.22
42705;BME280;28342;42.594;23.414;2023-04-08T13:30:57;94497.88;;;12.64;53.81
42705;BME280;28342;42.594;23.414;2023-04-08T13:33:25;94496.09;;;12.39;55.75
42705;BME280;28342;42.594;23.414;2023-04-08T13:36:00;94502.63;;;12.50;55.29
42705;BME280;28342;42.594;23.414;2023-04-08T13:38:48;94511.59;;;12.37;56.99
42705;BME280;28342;42.594;23.414;2023-04-08T13:41:54;94493.91;;;12.41;57.95
42705;BME280;28342;42.594;23.414;2023-04-08T13:44:28;94515.75;;;12.55;56.53
42705;BME280;28342;42.594;23.414;2023-04-08T13:47:12;94529.88;;;12.47;58.34
42705;BME280;28342;42.594;23.414;2023-04-08T13:49:38;94526.66;;;12.15;56.33
42705;BME280;28342;42.594;23.414;2023-04-08T13:52:06;94511.88;;;11.80;56.96
42705;BME280;28342;42.594;23.414;2023-04-08T13:55:09;94522.47;;;11.97;62.56
42705;BME280;28342;42.594;23.414;2023-04-08T13:58:08;94532.59;;;11.43;60.04
42705;BME280;28342;42.594;23.414;2023-04-08T14:00:38;94505.03;;;10.96;61.93
42705;BME280;28342;42.594;23.414;2023-04-08T14:03:05;94538.31;;;11.11;64.23
42705;BME280;28342;42.594;23.414;2023-04-08T14:09:05;94513.72;;;10.17;74.32
42705;BME280;28342;42.594;23.414;2023-04-08T14:11:37;94542.88;;;10.17;73.02
42705;BME280;28342;42.594;23.414;2023-04-08T14:14:03;94514.00;;;9.84;76.18
42705;BME280;28342;42.594;23.414;2023-04-08T14:17:08;94539.88;;;9.87;76.61
42705;BME280;28342;42.594;23.414;2023-04-08T14:19:40;94512.44;;;9.83;81.45
42705;BME280;28342;42.594;23.414;2023-04-08T14:22:26;94522.28;;;10.14;83.55
42705;BME280;28342;42.594;23.414;2023-04-08T14:24:51;94488.22;;;9.99;79.83
42705;BME280;28342;42.594;23.414;2023-04-08T14:27:51;94518.94;;;10.22;84.85
42705;BME280;28342;42.594;23.414;2023-04-08T14:30:59;94512.44;;;9.83;82.47
42705;BME280;28342;42.594;23.414;2023-04-08T14:33:54;94511.09;;;9.50;84.33
42705;BME280;28342;42.594;23.414;2023-04-08T14:36:40;94511.59;;;9.52;84.06
42705;BME280;28342;42.594;23.414;2023-04-08T14:39:06;94506.25;;;9.66;83.41
42705;BME280;28342;42.594;23.414;2023-04-08T14:41:31;94479.69;;;9.57;84.98
42705;BME280;28342;42.594;23.414;2023-04-08T14:43:57;94501.91;;;9.70;81.27
42705;BME280;28342;42.594;23.414;2023-04-08T14:46:26;94502.06;;;9.73;80.56
42705;BME280;28342;42.594;23.414;2023-04-08T14:49:01;94505.44;;;9.87;78.75
42705;BME280;28342;42.594;23.414;2023-04-08T14:51:27;94483.53;;;9.96;78.11
42705;BME280;28342;42.594;23.414;2023-04-08T14:53:52;94495.69;;;9.97;79.70
42705;BME280;28342;42.594;23.414;2023-04-08T14:56:18;94478.03;;;9.92;77.74
42705;BME280;28342;42.594;23.414;2023-04-08T14:58:43;94489.47;;;10.24;77.75
42705;BME280;28342;42.594;23.414;2023-04-08T15:01:08;94459.59;;;10.09;77.27
42705;BME280;28342;42.594;23.414;2023-04-08T15:03:35;94503.63;;;10.50;76.48
42705;BME280;28342;42.594;23.414;2023-04-08T15:06:00;94496.03;;;10.04;77.41
42705;BME280;28342;42.594;23.414;2023-04-08T15:08:26;94506.34;;;10.05;75.66
42705;BME280;28342;42.594;23.414;2023-04-08T15:10:52;94497.78;;;10.08;74.29
42705;BME280;28342;42.594;23.414;2023-04-08T15:13:18;94507.19;;;9.92;76.77
42705;BME280;28342;42.594;23.414;2023-04-08T15:15:43;94506.22;;;9.88;74.34
42705;BME280;28342;42.594;23.414;2023-04-08T15:18:08;94499.19;;;9.83;75.95
42705;BME280;28342;42.594;23.414;2023-04-08T15:20:34;94513.47;;;9.96;75.37
42705;BME280;28342;42.594;23.414;2023-04-08T15:23:00;94506.56;;;10.17;74.54
42705;BME280;28342;42.594;23.414;2023-04-08T15:25:25;94502.78;;;10.32;73.10
42705;BME280;28342;42.594;23.414;2023-04-08T15:27:50;94512.66;;;10.49;72.44
42705;BME280;28342;42.594;23.414;2023-04-08T15:30:16;94501.22;;;10.40;73.00
42705;BME280;28342;42.594;23.414;2023-04-08T15:32:48;94516.16;;;10.58;73.76
42705;BME280;28342;42.594;23.414;2023-04-08T15:35:13;94501.59;;;10.56;74.00
42705;BME280;28342;42.594;23.414;2023-04-08T15:37:39;94489.72;;;10.44;72.67
42705;BME280;28342;42.594;23.414;2023-04-08T15:40:05;94499.94;;;10.60;72.06
42705;BME280;28342;42.594;23.414;2023-04-08T15:42:31;94503.41;;;10.77;72.58
42705;BME280;28342;42.594;23.414;2023-04-08T15:44:56;94505.75;;;10.79;74.11
42705;BME280;28342;42.594;23.414;2023-04-08T15:47:23;94485.44;;;10.66;74.17
42705;BME280;28342;42.594;23.414;2023-04-08T15:49:54;94472.94;;;10.58;73.87
42705;BME280;28342;42.594;23.414;2023-04-08T15:52:22;94514.53;;;10.88;74.05
42705;BME280;28342;42.594;23.414;2023-04-08T15:54:49;94505.72;;;10.62;75.00
42705;BME280;28342;42.594;23.414;2023-04-08T15:57:20;94477.38;;;10.40;76.84
42705;BME280;28342;42.594;23.414;2023-04-08T15:59:51;94507.59;;;10.61;77.13
42705;BME280;28342;42.594;23.414;2023-04-08T16:02:19;94513.53;;;10.67;77.72
42705;BME280;28342;42.594;23.414;2023-04-08T16:04:44;94506.91;;;10.56;78.00
42705;BME280;28342;42.594;23.414;2023-04-08T16:07:10;94515.53;;;10.61;78.40
42705;BME280;28342;42.594;23.414;2023-04-08T16:09:36;94520.31;;;10.51;83.11
42705;BME280;28342;42.594;23.414;2023-04-08T16:12:04;94507.22;;;10.45;83.67
42705;BME280;28342;42.594;23.414;2023-04-08T16:14:31;94491.56;;;10.35;83.69
42705;BME280;28342;42.594;23.414;2023-04-08T16:16:57;94523.13;;;10.45;84.70
42705;BME280;28342;42.594;23.414;2023-04-08T16:19:23;94509.84;;;10.45;84.02
42705;BME280;28342;42.594;23.414;2023-04-08T16:21:49;94514.41;;;10.54;82.08
42705;BME280;28342;42.594;23.414;2023-04-08T16:24:24;94497.22;;;10.42;80.25
42705;BME280;28342;42.594;23.414;2023-04-08T16:26:50;94518.75;;;10.50;80.09
42705;BME280;28342;42.594;23.414;2023-04-08T16:29:15;94523.44;;;10.53;80.03
42705;BME280;28342;42.594;23.414;2023-04-08T16:31:41;94525.00;;;10.54;79.57
42705;BME280;28342;42.594;23.414;2023-04-08T16:34:11;94518.91;;;10.44;79.59
42705;BME280;28342;42.594;23.414;2023-04-08T16:36:36;94521.72;;;10.48;79.75